Time;durP1;ratioP1;P1;durP2;ratioP2;P2;SDS_P1;SDS_P2;PMS_P1;PMS_P2;Temp;Humidity;BMP_temperature;BMP_pressure;BME280_temperature;BME280_humidity;BME280_pressure;Samples;Min_cycle;Max_cycle;Signal;HPM_P1;HPM_P2
2021/10/25 00:01:19;;;;;;;1.60;1.20;;;7.80;98.20;;;;;;5007466;28;20475;-76
2021/10/25 00:03:45;;;;;;;1.60;1.30;;;7.80;98.20;;;;;;5030649;28;20911;-77
2021/10/25 00:06:12;;;;;;;1.60;1.23;;;7.70;98.20;;;;;;5011687;28;20524;-76
2021/10/25 00:08:39;;;;;;;1.60;1.30;;;7.70;98.20;;;;;;5026730;28;20492;-76
2021/10/25 00:11:07;;;;;;;1.60;1.30;;;7.70;98.20;;;;;;5011445;28;20479;-76
2021/10/25 00:13:34;;;;;;;1.60;1.20;;;7.70;98.20;;;;;;5035012;28;20494;-77
2021/10/25 00:16:01;;;;;;;1.60;1.30;;;7.70;98.20;;;;;;5010517;28;20459;-76
2021/10/25 00:18:28;;;;;;;1.60;1.30;;;7.70;98.20;;;;;;5031905;28;20495;-76
2021/10/25 00:20:55;;;;;;;1.60;1.30;;;7.70;98.20;;;;;;5012688;28;20471;-76
2021/10/25 00:23:22;;;;;;;1.60;1.30;;;7.70;98.20;;;;;;5034229;28;20831;-77
2021/10/25 00:25:48;;;;;;;1.60;1.30;;;7.70;98.20;;;;;;5004580;28;20468;-77
2021/10/25 00:28:16;;;;;;;1.60;1.20;;;7.70;98.20;;;;;;5036061;28;20487;-76
2021/10/25 00:30:43;;;;;;;1.60;1.30;;;7.60;98.20;;;;;;5019255;28;20499;-76
2021/10/25 00:33:10;;;;;;;1.60;1.23;;;7.60;98.20;;;;;;5019747;28;20518;-76
2021/10/25 00:35:37;;;;;;;1.60;1.30;;;7.60;98.20;;;;;;5019035;28;20467;-76
2021/10/25 00:38:04;;;;;;;1.60;1.23;;;7.60;98.20;;;;;;5021401;28;20490;-77
2021/10/25 00:40:31;;;;;;;1.60;1.30;;;7.60;98.20;;;;;;5019670;28;20565;-77
2021/10/25 00:42:58;;;;;;;1.60;1.40;;;7.60;98.20;;;;;;5023686;28;20541;-76
2021/10/25 00:45:26;;;;;;;1.60;1.30;;;7.60;98.20;;;;;;5021955;28;20942;-77
2021/10/25 00:47:52;;;;;;;1.60;1.30;;;7.60;98.20;;;;;;5030772;28;20497;-77
2021/10/25 00:50:19;;;;;;;1.60;1.40;;;7.60;98.20;;;;;;5015242;28;20933;-77
2021/10/25 00:52:46;;;;;;;1.60;1.30;;;7.60;98.20;;;;;;5030869;28;20581;-76
2021/10/25 00:55:13;;;;;;;1.60;1.30;;;7.50;98.20;;;;;;5018730;28;20466;-77
2021/10/25 00:57:41;;;;;;;1.60;1.30;;;7.50;98.20;;;;;;5010088;28;20490;-77
2021/10/25 01:00:09;;;;;;;1.60;1.30;;;7.50;98.20;;;;;;5017743;28;20958;-77
2021/10/25 01:02:37;;;;;;;1.60;1.23;;;7.50;98.20;;;;;;5027207;28;20489;-77
2021/10/25 01:05:06;;;;;;;1.60;1.20;;;7.50;98.20;;;;;;5023522;28;20470;-77
2021/10/25 01:07:33;;;;;;;1.60;1.30;;;7.50;98.20;;;;;;5008098;28;20511;-76
2021/10/25 01:10:02;;;;;;;1.60;1.37;;;7.40;98.20;;;;;;5019637;28;20834;-76
2021/10/25 01:12:49;;;;;;;;;;;;;;;;;;;;;
2021/10/25 01:15:16;;;;;;;1.60;1.30;;;7.40;98.20;;;;;;5000143;28;20465;-76
2021/10/25 01:17:44;;;;;;;1.60;1.30;;;7.40;98.20;;;;;;5006751;28;20491;-76
2021/10/25 01:20:12;;;;;;;1.60;1.20;;;7.40;98.20;;;;;;5021947;28;21155;-77
2021/10/25 01:22:39;;;;;;;1.60;1.40;;;7.40;98.20;;;;;;5009102;28;20502;-76
2021/10/25 01:25:06;;;;;;;1.60;1.30;;;7.40;98.20;;;;;;5021737;28;20516;-76
2021/10/25 01:27:33;;;;;;;1.60;1.30;;;7.40;98.20;;;;;;5002767;28;20488;-76
2021/10/25 01:30:00;;;;;;;1.60;1.30;;;7.40;98.20;;;;;;5024811;28;20894;-76
2021/10/25 01:32:27;;;;;;;1.60;1.30;;;7.30;98.20;;;;;;5023141;28;20474;-76
2021/10/25 01:34:54;;;;;;;1.60;1.30;;;7.30;98.20;;;;;;5024462;28;20539;-76
2021/10/25 01:37:22;;;;;;;1.60;1.30;;;7.30;98.20;;;;;;5020072;28;20557;-77
2021/10/25 01:39:49;;;;;;;1.60;1.30;;;7.30;98.20;;;;;;5029574;28;20831;-76
2021/10/25 01:42:16;;;;;;;1.60;1.30;;;7.20;98.20;;;;;;5024514;28;20490;-76
2021/10/25 01:44:43;;;;;;;1.60;1.30;;;7.20;98.20;;;;;;5027696;28;20554;-76
2021/10/25 01:47:13;;;;;;;1.60;1.27;;;7.20;98.20;;;;;;5017946;28;20889;-75
2021/10/25 01:49:40;;;;;;;1.60;1.37;;;7.20;98.20;;;;;;5023956;28;20491;-76
2021/10/25 01:52:07;;;;;;;1.60;1.30;;;7.20;98.20;;;;;;5012497;28;20482;-76
2021/10/25 01:54:36;;;;;;;1.60;1.30;;;7.20;98.20;;;;;;5017704;28;20954;-77
2021/10/25 01:57:03;;;;;;;1.60;1.30;;;7.20;98.20;;;;;;5010772;28;20498;-77
2021/10/25 01:59:30;;;;;;;1.60;1.30;;;7.10;98.20;;;;;;5027088;28;20510;-76
2021/10/25 02:01:57;;;;;;;1.60;1.30;;;7.10;98.20;;;;;;5012181;28;21045;-76
2021/10/25 02:04:24;;;;;;;1.60;1.33;;;7.10;98.20;;;;;;5026157;28;20456;-76
2021/10/25 02:06:51;;;;;;;1.60;1.40;;;7.10;98.20;;;;;;5024633;28;20482;-77
2021/10/25 02:09:18;;;;;;;1.60;1.30;;;7.10;98.20;;;;;;5030745;28;20491;-78
2021/10/25 02:11:46;;;;;;;1.60;1.30;;;7.00;98.20;;;;;;5007250;28;20491;-76
2021/10/25 02:14:13;;;;;;;1.60;1.30;;;7.00;98.20;;;;;;5031196;28;20902;-76
2021/10/25 02:16:40;;;;;;;1.60;1.30;;;7.00;98.20;;;;;;5021477;28;21043;-76
2021/10/25 02:19:06;;;;;;;1.60;1.40;;;7.00;98.20;;;;;;5027223;28;20889;-77
2021/10/25 02:21:33;;;;;;;1.60;1.30;;;7.00;98.20;;;;;;5020763;28;20485;-76
2021/10/25 02:24:00;;;;;;;1.60;1.30;;;7.00;98.20;;;;;;5026466;28;20464;-77
2021/10/25 02:26:27;;;;;;;1.60;1.30;;;6.90;98.20;;;;;;5017277;28;20485;-77
2021/10/25 02:28:55;;;;;;;1.60;1.30;;;6.90;98.20;;;;;;5034980;28;20486;-77
2021/10/25 02:31:22;;;;;;;1.60;1.40;;;6.90;98.20;;;;;;5019376;28;20570;-77
2021/10/25 02:33:49;;;;;;;1.60;1.30;;;6.90;98.20;;;;;;5033070;28;20490;-77
2021/10/25 02:36:16;;;;;;;1.60;1.30;;;6.90;98.20;;;;;;5017664;28;20865;-77
2021/10/25 02:38:42;;;;;;;1.60;1.30;;;6.90;98.20;;;;;;5033786;28;20483;-77
2021/10/25 02:41:11;;;;;;;1.60;1.30;;;6.90;98.20;;;;;;5019210;28;20803;-76
2021/10/25 02:43:38;;;;;;;1.60;1.40;;;6.90;98.20;;;;;;5030487;28;20464;-77
2021/10/25 02:46:06;;;;;;;1.60;1.50;;;6.90;98.20;;;;;;5010015;28;28266;-77
2021/10/25 02:48:33;;;;;;;1.60;1.40;;;6.90;98.20;;;;;;5016596;28;20480;-77
2021/10/25 02:51:00;;;;;;;1.60;1.30;;;6.90;98.20;;;;;;5014110;28;20851;-77
2021/10/25 02:53:27;;;;;;;1.60;1.30;;;6.90;98.20;;;;;;5034184;28;20526;-76
2021/10/25 02:55:54;;;;;;;1.97;1.80;;;6.90;98.20;;;;;;5011959;28;20831;-76
2021/10/25 02:58:21;;;;;;;1.60;1.30;;;6.90;98.20;;;;;;5025079;28;20482;-77
2021/10/25 03:00:48;;;;;;;1.60;1.30;;;6.90;98.20;;;;;;5019713;28;20953;-76
2021/10/25 03:03:16;;;;;;;1.60;1.33;;;6.90;98.20;;;;;;5027653;28;20464;-76
2021/10/25 03:05:43;;;;;;;1.60;1.40;;;6.90;98.20;;;;;;5028557;28;20534;-77
2021/10/25 03:08:11;;;;;;;1.70;1.60;;;6.90;98.20;;;;;;5015366;28;20490;-77
2021/10/25 03:10:38;;;;;;;1.60;1.40;;;6.90;98.20;;;;;;5034798;28;20546;-77
2021/10/25 03:13:06;;;;;;;1.60;1.30;;;6.90;98.20;;;;;;5035681;28;20485;-78
2021/10/25 03:15:33;;;;;;;1.60;1.30;;;6.90;98.20;;;;;;5025225;28;20469;-77
2021/10/25 03:18:00;;;;;;;1.60;1.40;;;6.90;98.20;;;;;;5034550;28;21036;-77
2021/10/25 03:20:28;;;;;;;1.60;1.27;;;6.90;98.20;;;;;;5021227;28;20479;-78
2021/10/25 03:22:55;;;;;;;1.60;1.40;;;6.90;98.20;;;;;;5031999;28;20486;-77
2021/10/25 03:25:22;;;;;;;1.60;1.30;;;6.80;98.20;;;;;;5026106;28;20463;-78
2021/10/25 03:27:49;;;;;;;1.60;1.30;;;6.80;98.20;;;;;;5036132;28;20492;-77
2021/10/25 03:30:18;;;;;;;1.60;1.30;;;6.80;98.20;;;;;;5018829;28;20479;-77
2021/10/25 03:32:45;;;;;;;1.60;1.37;;;6.70;98.20;;;;;;5030560;28;20932;-77
2021/10/25 03:35:12;;;;;;;1.60;1.30;;;6.70;98.20;;;;;;5027744;28;20975;-78
2021/10/25 03:37:40;;;;;;;1.60;1.30;;;6.70;98.20;;;;;;5026348;28;20876;-77
2021/10/25 03:40:09;;;;;;;1.60;1.30;;;6.70;98.20;;;;;;5028659;28;20939;-76
2021/10/25 03:42:41;;;;;;;1.60;1.30;;;6.60;98.20;;;;;;5036340;28;21073;-77
2021/10/25 03:45:13;;;;;;;1.60;1.30;;;6.60;98.20;;;;;;5030393;28;20534;-78
2021/10/25 03:47:44;;;;;;;1.60;1.30;;;6.60;98.20;;;;;;5028946;28;20532;-77
2021/10/25 03:50:13;;;;;;;1.60;1.30;;;6.60;98.20;;;;;;5024143;28;20483;-78
2021/10/25 03:52:47;;;;;;;1.60;1.40;;;6.60;98.20;;;;;;5035316;28;20490;-78
2021/10/25 03:55:19;;;;;;;1.60;1.40;;;6.60;98.20;;;;;;5028416;28;20549;-77
2021/10/25 04:00:43;;;;;;;1.60;1.30;;;6.60;98.20;;;;;;5011297;28;20459;-77
2021/10/25 04:03:38;;;;;;;1.60;1.30;;;6.50;98.20;;;;;;5009354;28;20475;-76
2021/10/25 04:25:43;;;;;;;1.60;1.30;;;6.40;98.20;;;;;;5025213;28;20478;-80
2021/10/25 04:28:11;;;;;;;1.60;1.30;;;6.40;98.20;;;;;;5012505;28;20480;-79
2021/10/25 04:30:39;;;;;;;1.60;1.40;;;6.40;98.20;;;;;;5023468;28;20502;-80
2021/10/25 04:33:07;;;;;;;1.60;1.37;;;6.40;98.20;;;;;;5031478;28;20479;-80
2021/10/25 04:35:34;;;;;;;1.60;1.40;;;6.40;98.20;;;;;;5026511;28;20519;-81
2021/10/25 04:38:02;;;;;;;1.60;1.30;;;6.40;98.20;;;;;;5030903;28;20817;-79
2021/10/25 04:40:31;;;;;;;1.60;1.30;;;6.40;98.20;;;;;;5022125;28;20959;-80
2021/10/25 04:42:58;;;;;;;1.60;1.40;;;6.40;98.20;;;;;;5032465;28;20486;-80
2021/10/25 04:45:25;;;;;;;1.60;1.30;;;6.30;98.20;;;;;;5025457;28;20467;-81
2021/10/25 04:47:54;;;;;;;1.60;1.30;;;6.40;98.20;;;;;;5029405;28;21012;-79
2021/10/25 04:50:22;;;;;;;1.60;1.30;;;6.40;98.20;;;;;;5022118;28;20993;-80
2021/10/25 04:52:49;;;;;;;1.60;1.30;;;6.40;98.20;;;;;;5019019;28;20533;-80
2021/10/25 04:55:16;;;;;;;1.60;1.43;;;6.40;98.20;;;;;;5029513;28;20903;-79
2021/10/25 04:57:44;;;;;;;1.60;1.50;;;6.50;98.20;;;;;;5007614;28;20495;-79
2021/10/25 05:00:12;;;;;;;1.60;1.50;;;6.50;98.20;;;;;;5024046;28;20470;-77
2021/10/25 05:02:39;;;;;;;1.60;1.30;;;6.50;98.20;;;;;;5027974;28;20529;-79
2021/10/25 05:05:07;;;;;;;1.60;1.30;;;6.50;98.20;;;;;;5027976;28;20499;-80
2021/10/25 05:07:34;;;;;;;1.60;1.30;;;6.60;98.20;;;;;;5011136;28;20485;-80
2021/10/25 05:10:02;;;;;;;1.60;1.40;;;6.60;98.20;;;;;;5025136;28;20477;-78
2021/10/25 05:12:41;;;;;;;1.63;1.50;;;6.60;98.20;;;;;;5038694;28;20497;-77
2021/10/25 05:15:10;;;;;;;1.60;1.30;;;6.60;98.20;;;;;;5014457;28;20463;-77
2021/10/25 05:17:37;;;;;;;1.60;1.43;;;6.60;98.20;;;;;;5025513;28;20520;-77
2021/10/25 05:20:04;;;;;;;1.60;1.30;;;6.60;98.20;;;;;;5015602;28;20471;-78
2021/10/25 05:22:32;;;;;;;1.60;1.30;;;6.60;98.20;;;;;;5030199;28;20545;-76
2021/10/25 05:24:59;;;;;;;1.60;1.30;;;6.60;98.20;;;;;;5027199;28;20468;-77
2021/10/25 05:27:26;;;;;;;1.60;1.30;;;6.70;98.20;;;;;;5025521;28;21036;-77
2021/10/25 05:29:53;;;;;;;1.60;1.30;;;6.70;98.20;;;;;;5021292;28;20483;-79
2021/10/25 05:32:21;;;;;;;1.60;1.27;;;6.70;98.20;;;;;;5018331;28;20483;-78
2021/10/25 05:34:48;;;;;;;1.60;1.20;;;6.70;98.20;;;;;;5026494;28;20464;-79
2021/10/25 05:37:15;;;;;;;1.60;1.30;;;6.70;98.20;;;;;;5018350;28;20505;-78
2021/10/25 05:39:41;;;;;;;1.60;1.40;;;6.70;98.20;;;;;;5022212;28;20451;-78
2021/10/25 05:42:09;;;;;;;1.60;1.30;;;6.70;98.20;;;;;;5018340;28;20487;-78
2021/10/25 05:44:39;;;;;;;1.60;1.30;;;6.70;98.20;;;;;;5024923;28;20473;-79
2021/10/25 05:47:06;;;;;;;1.60;1.30;;;6.70;98.20;;;;;;5005866;28;20926;-75
2021/10/25 05:49:35;;;;;;;1.60;1.40;;;6.70;98.20;;;;;;5020509;28;20460;-76
2021/10/25 05:52:02;;;;;;;1.60;1.30;;;6.70;98.20;;;;;;5017624;28;20990;-76
2021/10/25 05:54:29;;;;;;;1.60;1.30;;;6.60;98.20;;;;;;5022729;28;20538;-79
2021/10/25 05:56:56;;;;;;;1.60;1.30;;;6.60;98.20;;;;;;5009159;28;20483;-77
2021/10/25 05:59:25;;;;;;;1.60;1.30;;;6.60;98.20;;;;;;5017640;28;20479;-77
2021/10/25 06:01:58;;;;;;;1.60;1.30;;;6.50;98.20;;;;;;5039178;22;20979;-78
2021/10/25 06:04:26;;;;;;;1.60;1.30;;;6.50;98.20;;;;;;5023345;28;20961;-79
2021/10/25 06:06:54;;;;;;;1.60;1.30;;;6.50;98.20;;;;;;5009029;28;20941;-78
2021/10/25 06:09:22;;;;;;;1.60;1.30;;;6.50;98.20;;;;;;5022414;28;20474;-78
2021/10/25 06:11:48;;;;;;;1.60;1.40;;;6.40;98.20;;;;;;5022491;28;20482;-78
2021/10/25 06:14:25;;;;;;;4.23;3.93;;;6.40;98.20;;;;;;5025760;28;20537;-78
2021/10/25 06:16:57;;;;;;;1.60;1.30;;;6.40;98.20;;;;;;5020725;28;20492;-79
2021/10/25 06:19:24;;;;;;;1.60;1.30;;;6.30;98.20;;;;;;5028566;28;20459;-78
2021/10/25 06:21:51;;;;;;;1.60;1.30;;;6.30;98.20;;;;;;5015072;28;20943;-78
2021/10/25 06:24:19;;;;;;;1.60;1.40;;;6.30;98.20;;;;;;5028127;28;20463;-77
2021/10/25 06:26:45;;;;;;;1.60;1.40;;;6.30;98.20;;;;;;5022486;28;20501;-78
2021/10/25 06:29:12;;;;;;;1.60;1.30;;;6.30;98.20;;;;;;5033338;28;20479;-78
2021/10/25 06:31:41;;;;;;;1.60;1.40;;;6.20;98.20;;;;;;5025177;28;20547;-78
2021/10/25 06:34:15;;;;;;;1.60;1.30;;;6.20;98.20;;;;;;5040993;28;20471;-78
2021/10/25 06:36:47;;;;;;;1.60;1.30;;;6.20;98.20;;;;;;5029898;28;20536;-78
2021/10/25 06:39:20;;;;;;;1.60;1.30;;;6.20;98.20;;;;;;5040902;28;20609;-78
2021/10/25 06:41:50;;;;;;;1.60;1.30;;;6.20;98.20;;;;;;5025577;28;20891;-79
2021/10/25 06:44:17;;;;;;;1.70;1.53;;;6.20;98.20;;;;;;5043239;28;20962;-79
2021/10/25 06:46:44;;;;;;;1.60;1.30;;;6.20;98.20;;;;;;5027217;28;20482;-80
2021/10/25 06:49:11;;;;;;;1.60;1.40;;;6.20;98.20;;;;;;5038415;28;20541;-79
2021/10/25 06:51:38;;;;;;;1.60;1.30;;;6.20;98.20;;;;;;5026546;28;20486;-78
2021/10/25 06:54:05;;;;;;;1.60;1.30;;;6.30;98.20;;;;;;5037637;28;20772;-79
2021/10/25 06:56:33;;;;;;;1.60;1.30;;;6.30;98.20;;;;;;5014893;28;20507;-79
2021/10/25 06:59:01;;;;;;;1.60;1.30;;;6.30;98.20;;;;;;5024830;28;20777;-79
2021/10/25 07:01:37;;;;;;;1.60;1.30;;;6.30;98.20;;;;;;5026826;28;20641;-80
2021/10/25 07:04:05;;;;;;;1.60;1.30;;;6.40;98.20;;;;;;5039719;28;20497;-80
2021/10/25 07:06:33;;;;;;;1.60;1.30;;;6.50;98.20;;;;;;5027891;28;20539;-79
2021/10/25 07:09:02;;;;;;;1.60;1.30;;;6.60;98.20;;;;;;5040998;28;20459;-79
2021/10/25 07:11:29;;;;;;;1.60;1.30;;;6.70;98.20;;;;;;5024043;28;20498;-79
2021/10/25 07:13:56;;;;;;;1.60;1.37;;;6.80;98.20;;;;;;5039557;28;20531;-80
2021/10/25 07:16:29;;;;;;;1.60;1.30;;;6.90;98.20;;;;;;5021195;28;20466;-79
2021/10/25 07:19:15;;;;;;;1.60;1.30;;;7.00;98.20;;;;;;5038955;28;20551;-80
2021/10/25 08:01:11;;;;;;;2.57;2.37;;;8.50;98.20;;;;;;5029262;28;20542;-80
2021/10/25 08:06:37;;;;;;;1.60;1.30;;;8.80;98.20;;;;;;5024357;28;20505;-79
2021/10/25 08:09:13;;;;;;;1.60;1.20;;;8.90;98.20;;;;;;5031701;28;20814;-79
2021/10/25 08:11:44;;;;;;;1.60;1.30;;;9.00;98.20;;;;;;5022513;28;20773;-78
2021/10/25 08:14:12;;;;;;;1.60;1.30;;;9.10;98.20;;;;;;5036164;28;20463;-80
2021/10/25 08:16:48;;;;;;;1.60;1.20;;;9.20;98.20;;;;;;5024179;28;20474;-78
2021/10/25 08:19:24;;;;;;;1.60;1.10;;;9.30;98.20;;;;;;5031053;28;20490;-76
2021/10/25 08:21:55;;;;;;;1.63;1.30;;;9.40;98.20;;;;;;5020749;28;21008;-78
2021/10/25 08:24:23;;;;;;;1.60;1.20;;;9.50;98.20;;;;;;5033969;28;20462;-78
2021/10/25 08:26:50;;;;;;;1.60;1.20;;;9.70;98.20;;;;;;5025868;28;20478;-78
2021/10/25 08:29:18;;;;;;;1.60;1.30;;;9.80;98.20;;;;;;5030771;28;20487;-78
2021/10/25 08:31:49;;;;;;;1.60;1.20;;;9.90;98.20;;;;;;5026674;28;20493;-79
2021/10/25 08:39:50;;;;;;;1.60;1.20;;;10.20;98.20;;;;;;5024127;28;20967;-79
2021/10/25 08:42:21;;;;;;;1.60;1.20;;;10.30;98.20;;;;;;5023650;28;20494;-77
2021/10/25 08:47:36;;;;;;;1.57;1.20;;;10.50;98.20;;;;;;5030698;28;20477;-78
2021/10/25 08:50:07;;;;;;;1.60;1.20;;;10.60;98.20;;;;;;5017466;28;20526;-78
2021/10/25 08:52:39;;;;;;;1.60;1.10;;;10.60;98.20;;;;;;5025042;28;20495;-79
2021/10/25 08:55:09;;;;;;;1.60;1.20;;;10.70;98.20;;;;;;5016351;28;20575;-78
2021/10/25 08:57:36;;;;;;;1.53;1.10;;;10.80;98.20;;;;;;5022890;28;20557;-78
2021/10/25 09:00:07;;;;;;;1.60;1.20;;;10.90;98.20;;;;;;5017468;28;20464;-78
2021/10/25 09:02:35;;;;;;;1.60;1.20;;;11.00;98.20;;;;;;5026377;28;20482;-79
2021/10/25 09:05:05;;;;;;;1.60;1.10;;;11.10;98.20;;;;;;5017071;28;20459;-77
2021/10/25 09:07:48;;;;;;;1.60;1.10;;;11.20;98.20;;;;;;5023058;28;20482;-78
2021/10/25 09:10:22;;;;;;;1.60;1.20;;;11.30;98.20;;;;;;5019948;28;20515;-80
2021/10/25 09:12:56;;;;;;;1.60;1.10;;;11.40;98.20;;;;;;5030552;28;20950;-78
2021/10/25 09:15:25;;;;;;;1.60;1.10;;;11.50;98.20;;;;;;5018655;28;20463;-78
2021/10/25 09:17:52;;;;;;;1.80;1.40;;;11.50;98.20;;;;;;5029238;28;21322;-78
2021/10/25 09:20:22;;;;;;;1.60;1.10;;;11.60;98.20;;;;;;5016532;28;20525;-79
2021/10/25 09:22:49;;;;;;;1.60;1.10;;;11.60;98.20;;;;;;5028310;28;20490;-78
2021/10/25 09:25:17;;;;;;;1.60;1.10;;;11.70;98.20;;;;;;5017788;28;20783;-74
2021/10/25 09:27:48;;;;;;;1.60;1.10;;;11.70;98.20;;;;;;5028854;28;20486;-76
2021/10/25 09:30:16;;;;;;;1.60;1.10;;;11.80;98.20;;;;;;5012835;28;20467;-77
2021/10/25 09:32:45;;;;;;;1.70;1.50;;;11.80;98.20;;;;;;5002351;28;20538;-78
2021/10/25 09:35:21;;;;;;;1.57;1.10;;;11.90;98.20;;;;;;5012631;28;20478;-78
2021/10/25 09:37:55;;;;;;;1.57;1.10;;;11.90;98.20;;;;;;5004506;28;20482;-78
2021/10/25 09:40:30;;;;;;;1.60;1.20;;;12.00;98.20;;;;;;5014891;28;20897;-77
2021/10/25 09:43:18;;;;;;;1.53;1.10;;;12.10;98.20;;;;;;5021672;28;20492;-77
2021/10/25 09:46:11;;;;;;;1.60;1.10;;;12.10;98.20;;;;;;5018455;28;20460;-77
2021/10/25 09:51:26;;;;;;;1.60;1.10;;;12.30;98.20;;;;;;5014562;28;20551;-77
2021/10/25 09:53:58;;;;;;;1.53;1.10;;;12.40;98.10;;;;;;5033407;28;20865;-76
2021/10/25 09:56:32;;;;;;;1.60;1.10;;;12.40;97.40;;;;;;5012617;28;21009;-77
2021/10/25 09:59:09;;;;;;;1.57;1.00;;;12.50;98.20;;;;;;5028747;28;20475;-78
2021/10/25 10:01:41;;;;;;;1.53;1.10;;;12.60;98.20;;;;;;5010038;28;20590;-77
2021/10/25 10:04:09;;;;;;;1.57;1.10;;;12.70;97.50;;;;;;5030120;28;20467;-76
2021/10/25 10:06:37;;;;;;;1.50;1.10;;;12.70;96.60;;;;;;5021174;28;21134;-76
2021/10/25 10:09:04;;;;;;;1.57;1.10;;;12.60;97.20;;;;;;5034609;28;20831;-76
2021/10/25 10:11:34;;;;;;;1.53;1.07;;;12.60;97.30;;;;;;5018606;28;20485;-77
2021/10/25 10:14:02;;;;;;;1.60;1.10;;;12.70;98.20;;;;;;5031716;28;20521;-75
2021/10/25 10:16:33;;;;;;;1.50;1.00;;;12.80;97.90;;;;;;5021397;28;20545;-76
2021/10/25 10:19:03;;;;;;;1.57;1.10;;;12.90;96.80;;;;;;5032338;28;20577;-77
2021/10/25 10:21:35;;;;;;;1.57;1.00;;;13.00;98.00;;;;;;5019428;28;20697;-77
2021/10/25 10:24:05;;;;;;;1.57;1.00;;;13.20;97.40;;;;;;5031739;28;20921;-77
2021/10/25 10:26:33;;;;;;;1.50;1.00;;;13.30;96.70;;;;;;5020016;28;20605;-75
2021/10/25 10:29:10;;;;;;;1.57;1.10;;;13.40;96.00;;;;;;5032187;28;20565;-78
2021/10/25 10:31:37;;;;;;;1.57;1.10;;;13.50;95.80;;;;;;5020888;28;20516;-77
2021/10/25 10:34:12;;;;;;;1.53;1.00;;;13.60;96.20;;;;;;5031866;28;20463;-77
2021/10/25 10:36:52;;;;;;;1.57;1.07;;;13.80;95.40;;;;;;5021868;28;20981;-77
2021/10/25 10:39:19;;;;;;;1.50;1.00;;;14.00;96.10;;;;;;5028954;28;20475;-76
2021/10/25 10:41:54;;;;;;;1.50;1.07;;;14.10;95.80;;;;;;5018752;28;20501;-77
2021/10/25 10:44:24;;;;;;;1.53;1.00;;;14.20;95.00;;;;;;5026983;28;20466;-77
2021/10/25 10:46:55;;;;;;;1.60;1.10;;;14.30;94.20;;;;;;5024580;28;20568;-76
2021/10/25 10:49:23;;;;;;;1.57;1.00;;;14.40;93.20;;;;;;5021987;28;20472;-78
2021/10/25 10:55:00;;;;;;;1.60;1.00;;;14.50;93.40;;;;;;5023968;28;20467;-78
2021/10/25 10:58:12;;;;;;;1.57;1.00;;;14.60;93.00;;;;;;5025952;28;20785;-77
2021/10/25 11:00:41;;;;;;;1.53;1.00;;;14.70;92.60;;;;;;5024247;28;20459;-76
2021/10/25 11:03:21;;;;;;;1.57;1.00;;;14.70;92.90;;;;;;5010649;28;20506;-76
2021/10/25 11:05:52;;;;;;;1.50;0.90;;;14.80;93.00;;;;;;5016523;28;20463;-77
2021/10/25 11:08:21;;;;;;;1.57;1.00;;;14.90;91.30;;;;;;5039213;28;20471;-77
2021/10/25 11:10:50;;;;;;;1.57;1.00;;;15.00;92.80;;;;;;5010710;28;20578;-76
2021/10/25 11:13:21;;;;;;;1.57;1.00;;;15.10;91.80;;;;;;5035441;28;20526;-77
2021/10/25 11:16:07;;;;;;;1.70;1.40;;;15.20;91.30;;;;;;5004407;28;20982;-75
2021/10/25 11:18:36;;;;;;;1.53;1.00;;;15.20;91.30;;;;;;5033890;28;20483;-75
2021/10/25 11:21:08;;;;;;;1.50;1.00;;;15.30;91.00;;;;;;5011587;28;20889;-76
2021/10/25 11:23:43;;;;;;;1.50;0.90;;;15.40;90.90;;;;;;5032194;28;20489;-76
2021/10/25 11:26:16;;;;;;;1.60;1.00;;;15.50;90.80;;;;;;5015883;28;20539;-76
2021/10/25 11:28:58;;;;;;;1.57;1.00;;;15.60;90.00;;;;;;5033402;28;20551;-76
2021/10/25 11:31:25;;;;;;;1.57;1.00;;;15.70;90.00;;;;;;5014431;28;20493;-75
2021/10/25 11:33:52;;;;;;;1.50;1.00;;;15.80;90.10;;;;;;5031274;28;20551;-76
2021/10/25 11:36:22;;;;;;;1.60;1.00;;;15.90;89.80;;;;;;5006756;28;20557;-76
2021/10/25 11:38:50;;;;;;;1.53;1.00;;;15.90;90.00;;;;;;5014016;28;20579;-76
2021/10/25 11:41:16;;;;;;;1.53;1.00;;;16.00;90.70;;;;;;4998121;28;20482;-76
2021/10/25 11:43:43;;;;;;;1.50;1.00;;;16.00;90.10;;;;;;5031534;28;20551;-77
2021/10/25 11:46:19;;;;;;;1.53;1.00;;;16.10;89.70;;;;;;4999110;28;22129;-76
2021/10/25 11:48:55;;;;;;;1.50;1.00;;;16.10;90.40;;;;;;5016922;28;20475;-76
2021/10/25 11:51:22;;;;;;;1.60;1.10;;;16.20;89.40;;;;;;5012040;28;20493;-76
2021/10/25 11:53:55;;;;;;;1.53;1.00;;;16.30;90.30;;;;;;5030341;28;20553;-76
2021/10/25 11:56:21;;;;;;;1.50;0.93;;;16.30;90.00;;;;;;5014696;28;20860;-76
2021/10/25 11:58:48;;;;;;;1.53;1.00;;;16.30;89.30;;;;;;5029318;28;21542;-77
2021/10/25 12:01:15;;;;;;;1.50;0.90;;;16.30;89.50;;;;;;5010084;28;20482;-77
2021/10/25 12:03:44;;;;;;;1.57;1.00;;;16.20;89.10;;;;;;5036536;28;20483;-76
2021/10/25 12:06:16;;;;;;;1.60;1.00;;;16.20;90.10;;;;;;5014390;28;21079;-76
2021/10/25 12:08:58;;;;;;;1.53;1.00;;;16.20;90.50;;;;;;5031980;28;20471;-76
2021/10/25 12:11:32;;;;;;;1.53;0.93;;;16.20;90.40;;;;;;5016623;28;20481;-75
2021/10/25 12:14:05;;;;;;;1.53;1.00;;;16.20;89.80;;;;;;5030994;28;20491;-75
2021/10/25 12:16:32;;;;;;;1.53;1.00;;;16.20;90.30;;;;;;5013869;28;20482;-76
2021/10/25 12:19:01;;;;;;;1.50;1.00;;;16.30;90.70;;;;;;5026839;28;20470;-76
2021/10/25 12:21:34;;;;;;;1.53;1.00;;;16.30;89.80;;;;;;5012161;28;20514;-76
2021/10/25 12:24:04;;;;;;;1.53;1.00;;;16.30;89.70;;;;;;5032310;28;20458;-75
2021/10/25 12:26:31;;;;;;;1.53;1.00;;;16.30;90.30;;;;;;5017573;28;21260;-75
2021/10/25 12:28:58;;;;;;;1.60;1.00;;;16.30;90.20;;;;;;5031692;28;20810;-76
2021/10/25 12:31:27;;;;;;;1.53;0.90;;;16.30;90.00;;;;;;5014074;28;20481;-75
2021/10/25 12:34:04;;;;;;;1.53;0.90;;;16.30;89.70;;;;;;5033747;28;20578;-77
2021/10/25 12:36:36;;;;;;;1.60;1.00;;;16.30;89.90;;;;;;5015361;28;20487;-76
2021/10/25 12:39:08;;;;;;;1.50;1.00;;;16.30;90.30;;;;;;5022563;28;20463;-76
2021/10/25 12:41:57;;;;;;;1.50;0.90;;;16.30;90.70;;;;;;5011189;28;20553;-76
2021/10/25 12:44:27;;;;;;;1.53;0.97;;;16.30;90.80;;;;;;5024525;28;20459;-76
2021/10/25 12:47:06;;;;;;;1.50;0.97;;;16.40;90.90;;;;;;5021315;28;20482;-76
2021/10/25 12:49:35;;;;;;;1.53;1.00;;;16.40;90.30;;;;;;5020635;28;20579;-76
2021/10/25 12:52:07;;;;;;;1.53;1.00;;;16.40;90.50;;;;;;5014525;28;20486;-76
2021/10/25 12:54:35;;;;;;;1.50;0.90;;;16.50;90.20;;;;;;5026799;28;20471;-76
2021/10/25 12:57:05;;;;;;;1.57;1.00;;;16.50;90.60;;;;;;5022616;28;20513;-77
2021/10/25 12:59:33;;;;;;;1.53;1.00;;;16.50;90.50;;;;;;5020495;28;20567;-76
2021/10/25 13:01:59;;;;;;;1.50;0.93;;;16.50;91.20;;;;;;5008623;28;20495;-77
2021/10/25 13:04:30;;;;;;;1.50;0.93;;;16.50;90.80;;;;;;5017661;28;20460;-76
2021/10/25 13:07:11;;;;;;;1.50;0.93;;;16.50;90.70;;;;;;5020523;28;20488;-77
2021/10/25 13:09:47;;;;;;;1.60;1.00;;;16.50;90.40;;;;;;5025980;28;20463;-76
2021/10/25 13:12:14;;;;;;;1.53;0.90;;;16.50;90.80;;;;;;5016462;28;20494;-77
2021/10/25 13:14:41;;;;;;;1.50;0.90;;;16.50;90.80;;;;;;5023136;28;20472;-76
2021/10/25 13:17:07;;;;;;;1.53;0.90;;;16.40;90.50;;;;;;5017374;28;20489;-77
2021/10/25 13:19:37;;;;;;;1.50;1.00;;;16.40;91.00;;;;;;5029779;28;20470;-77
2021/10/25 13:22:06;;;;;;;1.50;0.90;;;16.40;91.00;;;;;;5014932;28;21204;-76
2021/10/25 13:24:33;;;;;;;1.57;1.00;;;16.50;91.00;;;;;;5020628;28;20917;-76
2021/10/25 13:27:00;;;;;;;1.50;0.90;;;16.50;91.90;;;;;;5012603;28;20576;-77
2021/10/25 13:29:26;;;;;;;1.50;1.00;;;16.50;91.20;;;;;;5019294;28;20468;-76
2021/10/25 13:31:53;;;;;;;1.53;0.97;;;16.50;91.10;;;;;;5021824;28;20515;-76
2021/10/25 13:34:21;;;;;;;1.53;0.97;;;16.60;91.80;;;;;;5027658;28;20857;-76
2021/10/25 13:36:48;;;;;;;1.50;1.00;;;16.60;91.50;;;;;;5012475;28;20487;-76
2021/10/25 13:39:18;;;;;;;1.50;1.00;;;16.70;91.10;;;;;;5006679;28;20503;-76
2021/10/25 13:41:45;;;;;;;1.50;0.90;;;16.80;91.20;;;;;;4996758;28;20483;-76
2021/10/25 13:44:12;;;;;;;1.57;1.00;;;16.80;90.60;;;;;;5008688;28;20467;-77
2021/10/25 13:46:39;;;;;;;1.53;1.00;;;16.80;91.00;;;;;;5008206;28;20486;-77
2021/10/25 13:49:07;;;;;;;1.53;1.00;;;16.90;91.00;;;;;;5032559;28;20477;-76
2021/10/25 13:51:34;;;;;;;1.50;1.00;;;16.90;90.40;;;;;;5010416;28;21025;-76
2021/10/25 13:54:01;;;;;;;1.50;1.00;;;16.90;90.40;;;;;;5024117;28;20580;-76
2021/10/25 13:56:29;;;;;;;1.57;0.90;;;16.90;90.60;;;;;;5011245;28;20914;-76
2021/10/25 13:58:57;;;;;;;1.50;0.90;;;16.90;89.80;;;;;;5022633;28;21057;-76
2021/10/25 14:01:24;;;;;;;1.50;0.90;;;16.90;91.20;;;;;;5011962;28;20907;-75
2021/10/25 14:03:52;;;;;;;1.50;0.90;;;16.90;89.50;;;;;;5024845;28;20463;-76
2021/10/25 14:06:21;;;;;;;1.50;1.00;;;16.80;89.50;;;;;;5008439;28;21271;-76
2021/10/25 14:08:49;;;;;;;1.50;1.00;;;16.80;89.60;;;;;;5023291;28;20499;-75
2021/10/25 14:11:17;;;;;;;1.50;1.00;;;16.70;90.10;;;;;;4997804;28;20518;-76
2021/10/25 14:13:55;;;;;;;1.53;1.00;;;16.70;89.60;;;;;;4998831;28;20491;-76
2021/10/25 14:16:33;;;;;;;1.50;0.97;;;16.60;90.30;;;;;;4998787;28;20952;-76
2021/10/25 14:19:02;;;;;;;1.50;0.90;;;16.60;90.80;;;;;;5027459;28;21195;-76
2021/10/25 14:21:33;;;;;;;1.50;0.93;;;16.60;90.60;;;;;;5006715;28;20682;-76
2021/10/25 14:24:01;;;;;;;1.53;1.00;;;16.60;91.00;;;;;;5016040;28;20541;-76